createdAt,value
2022-10-29T00:01:44.669Z,13.37
2022-10-29T00:04:12.755Z,13.40
2022-10-29T00:06:40.935Z,13.39
2022-10-29T00:09:08.842Z,13.35
2022-10-29T00:11:38.050Z,13.37
2022-10-29T00:14:06.112Z,13.37
2022-10-29T00:16:38.090Z,13.31
2022-10-29T00:19:07.000Z,13.33
2022-10-29T00:21:35.077Z,13.32
2022-10-29T00:24:02.983Z,13.33
2022-10-29T00:26:31.230Z,13.33
2022-10-29T00:29:00.345Z,13.28
2022-10-29T00:31:28.292Z,13.27
2022-10-29T00:34:14.511Z,13.23
2022-10-29T00:36:42.489Z,13.21
2022-10-29T00:39:14.134Z,13.20
2022-10-29T00:41:42.028Z,13.20
2022-10-29T00:44:35.451Z,13.17
2022-10-29T00:47:12.324Z,13.21
2022-10-29T00:49:42.041Z,13.16
2022-10-29T00:52:11.117Z,13.13
2022-10-29T00:54:43.760Z,13.10
2022-10-29T00:57:15.430Z,13.13
2022-10-29T01:02:21.627Z,13.16
2022-10-29T01:04:50.840Z,13.15
2022-10-29T01:07:18.729Z,13.10
2022-10-29T01:09:46.595Z,13.16
2022-10-29T01:12:33.874Z,13.13
2022-10-29T01:15:14.158Z,13.14
2022-10-29T01:17:51.431Z,13.03
2022-10-29T01:20:47.406Z,13.09
2022-10-29T01:23:39.684Z,13.13
2022-10-29T01:26:35.246Z,13.17
2022-10-29T01:29:20.526Z,13.12
2022-10-29T01:31:54.466Z,13.12
2022-10-29T01:34:30.274Z,13.11
2022-10-29T01:37:02.827Z,13.07
2022-10-29T01:39:38.709Z,13.09
2022-10-29T01:42:14.936Z,13.05
2022-10-29T01:44:48.507Z,13.01
2022-10-29T01:47:20.897Z,13.10
2022-10-29T01:49:53.070Z,13.09
2022-10-29T01:52:24.150Z,13.07
2022-10-29T01:54:52.653Z,13.09
2022-10-29T01:57:32.161Z,13.07
2022-10-29T02:00:02.878Z,13.12
2022-10-29T02:02:48.506Z,13.06
2022-10-29T02:05:24.681Z,13.03
2022-10-29T02:07:56.146Z,12.95
2022-10-29T02:10:33.734Z,12.90
2022-10-29T02:13:01.655Z,12.87
2022-10-29T02:15:35.565Z,12.79
2022-10-29T02:18:07.013Z,12.69
2022-10-29T02:20:36.095Z,12.75
2022-10-29T02:23:04.066Z,12.69
2022-10-29T02:25:32.060Z,12.63
2022-10-29T02:28:00.152Z,12.67
2022-10-29T02:30:27.936Z,12.62
2022-10-29T02:32:55.950Z,12.59
2022-10-29T02:35:25.747Z,12.58
2022-10-29T02:37:53.555Z,12.58
2022-10-29T02:40:21.587Z,12.53
2022-10-29T02:42:49.650Z,12.50
2022-10-29T02:45:17.518Z,12.55
2022-10-29T02:47:47.471Z,12.51
2022-10-29T02:50:15.625Z,12.54
2022-10-29T02:52:45.063Z,12.46
2022-10-29T02:55:12.832Z,12.52
2022-10-29T02:57:40.630Z,12.54
2022-10-29T03:00:10.300Z,12.56
2022-10-29T03:02:38.571Z,12.54
2022-10-29T03:05:14.521Z,12.55
2022-10-29T03:07:42.572Z,12.53
2022-10-29T03:10:12.082Z,12.58
2022-10-29T03:12:39.882Z,12.59
2022-10-29T03:15:08.509Z,12.61
2022-10-29T03:17:36.667Z,12.62
2022-10-29T03:20:05.084Z,12.62
2022-10-29T03:22:32.951Z,12.62
2022-10-29T03:25:01.026Z,12.62
2022-10-29T03:27:30.704Z,12.68
2022-10-29T03:29:58.587Z,12.69
2022-10-29T03:32:26.577Z,12.70
2022-10-29T03:34:59.027Z,12.77
2022-10-29T03:37:28.091Z,12.82
2022-10-29T03:39:56.100Z,12.82
2022-10-29T03:42:23.906Z,12.85
2022-10-29T03:44:53.380Z,12.91
2022-10-29T03:47:21.187Z,12.92
2022-10-29T03:49:49.024Z,12.95
2022-10-29T03:52:16.958Z,12.97
2022-10-29T03:54:44.963Z,12.96
2022-10-29T03:57:12.835Z,13.01
2022-10-29T03:59:41.084Z,13.03
2022-10-29T04:02:10.716Z,13.05
2022-10-29T04:04:38.872Z,13.10
2022-10-29T04:07:07.153Z,13.13
2022-10-29T04:09:35.051Z,13.16
2022-10-29T04:12:04.139Z,13.14
2022-10-29T04:14:32.537Z,13.18
2022-10-29T04:17:00.447Z,13.24
2022-10-29T04:19:29.641Z,13.24
2022-10-29T04:30:21.136Z,13.38
2022-10-29T04:32:49.087Z,13.45
2022-10-29T04:35:18.412Z,13.49
2022-10-29T04:37:46.412Z,13.51
2022-10-29T04:40:14.318Z,13.50
2022-10-29T04:42:43.819Z,13.51
2022-10-29T04:45:11.746Z,13.54
2022-10-29T04:47:39.620Z,13.58
2022-10-29T04:50:08.099Z,13.58
2022-10-29T04:52:37.351Z,13.62
2022-10-29T04:55:05.815Z,13.67
2022-10-29T04:57:33.840Z,13.71
2022-10-29T05:00:01.794Z,13.69
2022-10-29T05:02:30.849Z,13.73
2022-10-29T05:04:58.610Z,13.76
2022-10-29T05:07:28.045Z,13.79
2022-10-29T05:09:57.222Z,13.82
2022-10-29T05:12:25.218Z,13.84
2022-10-29T05:14:53.380Z,13.86
2022-10-29T05:17:22.031Z,13.86
2022-10-29T05:19:50.043Z,13.88
2022-10-29T05:22:18.332Z,13.90
2022-10-29T05:24:46.110Z,13.89
2022-10-29T05:27:15.846Z,13.91
2022-10-29T05:29:43.757Z,13.90
2022-10-29T05:32:11.883Z,13.93
2022-10-29T05:34:44.456Z,13.92
2022-10-29T05:37:12.557Z,13.91
2022-10-29T05:39:40.451Z,13.91
2022-10-29T05:42:08.585Z,13.93
2022-10-29T05:44:37.843Z,13.97
2022-10-29T05:47:07.439Z,13.93
2022-10-29T05:49:36.247Z,13.95
2022-10-29T05:52:04.166Z,13.92
2022-10-29T05:54:32.163Z,13.94
2022-10-29T05:57:00.077Z,13.95
2022-10-29T05:59:32.639Z,13.94
2022-10-29T06:02:03.290Z,13.96
2022-10-29T06:04:31.359Z,13.91
2022-10-29T06:06:59.125Z,13.95
2022-10-29T06:09:27.084Z,13.95
2022-10-29T06:11:55.772Z,13.97
2022-10-29T06:14:23.834Z,13.77
2022-10-29T06:16:51.865Z,13.96
2022-10-29T06:19:20.986Z,13.93
2022-10-29T06:21:48.902Z,13.94
2022-10-29T06:24:16.819Z,13.93
2022-10-29T06:26:44.540Z,13.92
2022-10-29T06:29:12.626Z,13.98
2022-10-29T06:31:40.460Z,13.94
2022-10-29T06:34:08.711Z,13.95
2022-10-29T06:36:37.928Z,13.97
2022-10-29T06:39:05.882Z,13.97
2022-10-29T06:41:33.740Z,13.94
2022-10-29T06:44:01.607Z,13.99
2022-10-29T06:46:29.565Z,13.92
2022-10-29T06:48:57.589Z,13.95
2022-10-29T06:51:25.453Z,13.93
2022-10-29T06:53:55.106Z,13.90
2022-10-29T06:56:23.240Z,13.89
2022-10-29T06:58:51.561Z,13.94
2022-10-29T07:01:19.650Z,13.93
2022-10-29T07:03:48.315Z,13.96
2022-10-29T07:06:16.382Z,13.99
2022-10-29T07:08:44.367Z,13.92
2022-10-29T07:11:13.877Z,13.94
2022-10-29T07:13:41.685Z,13.89
2022-10-29T07:16:09.659Z,13.80
2022-10-29T07:18:37.537Z,13.86
2022-10-29T07:21:06.418Z,13.78
2022-10-29T07:23:34.365Z,13.80
2022-10-29T07:26:02.318Z,13.72
2022-10-29T07:28:31.484Z,13.73
2022-10-29T07:31:01.833Z,13.68
2022-10-29T07:33:30.919Z,13.59
2022-10-29T07:36:00.902Z,13.55
2022-10-29T07:38:28.747Z,13.55
2022-10-29T07:40:57.607Z,13.51
2022-10-29T07:43:25.700Z,13.43
2022-10-29T07:45:55.039Z,13.38
2022-10-29T07:48:23.125Z,13.43
2022-10-29T07:50:51.435Z,13.40
2022-10-29T07:53:19.572Z,13.41
2022-10-29T07:55:53.594Z,13.37
2022-10-29T07:58:21.809Z,13.40
2022-10-29T08:00:49.773Z,13.39
2022-10-29T08:03:19.491Z,13.52
2022-10-29T08:05:56.287Z,13.64
2022-10-29T08:08:24.521Z,13.90
2022-10-29T08:10:52.896Z,14.40
2022-10-29T08:13:20.806Z,15.10
2022-10-29T08:15:52.167Z,15.85
2022-10-29T08:18:26.505Z,16.67
2022-10-29T08:20:55.435Z,17.19
2022-10-29T08:23:23.858Z,17.69
2022-10-29T08:25:51.606Z,18.01
2022-10-29T08:28:20.879Z,18.63
2022-10-29T08:30:51.193Z,18.96
2022-10-29T08:33:20.922Z,18.83
2022-10-29T08:35:48.734Z,18.56
2022-10-29T08:38:16.611Z,18.07
2022-10-29T08:40:56.368Z,18.15
2022-10-29T08:43:48.866Z,18.68
2022-10-29T08:46:22.195Z,18.84
2022-10-29T08:48:55.429Z,19.23
2022-10-29T08:51:27.820Z,19.78
2022-10-29T08:56:50.537Z,21.09
2022-10-29T08:59:21.491Z,21.06
2022-10-29T09:01:49.725Z,21.27
2022-10-29T09:04:28.533Z,21.06
2022-10-29T09:07:14.426Z,21.30
2022-10-29T09:09:48.323Z,21.28
2022-10-29T09:12:39.104Z,21.47
2022-10-29T09:15:31.688Z,21.21
2022-10-29T09:18:13.570Z,21.24
2022-10-29T09:20:53.419Z,21.99
2022-10-29T09:23:29.094Z,22.47
2022-10-29T09:26:02.571Z,23.04
2022-10-29T09:28:40.931Z,23.38
2022-10-29T09:31:17.471Z,23.03
2022-10-29T09:33:47.383Z,23.12
2022-10-29T09:36:20.223Z,22.88
2022-10-29T09:38:56.188Z,23.34
2022-10-29T09:41:27.813Z,22.77
2022-10-29T09:44:02.285Z,23.48
2022-10-29T09:46:40.821Z,24.03
2022-10-29T09:49:21.610Z,24.28
2022-10-29T09:51:54.945Z,24.90
2022-10-29T09:54:26.008Z,24.79
2022-10-29T09:56:56.144Z,25.28
2022-10-29T09:59:31.158Z,24.99
2022-10-29T10:02:00.214Z,25.39
2022-10-29T10:04:30.905Z,24.56
2022-10-29T10:07:11.312Z,23.97
2022-10-29T10:09:53.116Z,23.75
2022-10-29T10:12:23.311Z,24.28
2022-10-29T10:15:03.141Z,24.96
2022-10-29T10:17:56.669Z,25.42
2022-10-29T10:20:31.896Z,26.17
2022-10-29T10:23:01.670Z,25.92
2022-10-29T10:25:34.741Z,25.99
2022-10-29T10:28:06.167Z,25.70
2022-10-29T10:30:34.027Z,25.83
2022-10-29T10:33:13.049Z,25.54
2022-10-29T10:35:40.914Z,25.13
2022-10-29T10:38:13.232Z,24.52
2022-10-29T10:40:43.453Z,24.41
2022-10-29T10:43:21.234Z,24.30
2022-10-29T10:45:55.361Z,24.32
2022-10-29T10:48:28.593Z,23.54
2022-10-29T10:51:29.811Z,23.56
2022-10-29T10:54:00.439Z,23.52
2022-10-29T10:56:28.418Z,23.28
2022-10-29T10:59:08.906Z,23.25
2022-10-29T11:01:42.389Z,24.12
2022-10-29T11:04:18.882Z,24.20
2022-10-29T11:06:51.345Z,23.99
2022-10-29T11:09:27.246Z,23.55
2022-10-29T11:12:01.772Z,23.15
2022-10-29T11:14:34.686Z,23.42
2022-10-29T11:17:04.567Z,23.11
2022-10-29T11:19:39.738Z,22.65
2022-10-29T11:22:19.576Z,21.87
2022-10-29T11:24:56.643Z,21.46
2022-10-29T11:27:35.584Z,21.13
2022-10-29T11:30:06.829Z,20.75
2022-10-29T11:32:49.411Z,20.53
2022-10-29T11:35:24.769Z,19.84
2022-10-29T11:38:00.133Z,19.76
2022-10-29T11:40:38.543Z,19.89
2022-10-29T11:43:12.284Z,20.02
2022-10-29T11:45:48.557Z,20.13
2022-10-29T11:51:05.413Z,19.72
2022-10-29T11:53:54.122Z,19.49
2022-10-29T11:56:41.321Z,18.86
2022-10-29T11:59:16.462Z,18.77
2022-10-29T12:01:54.319Z,18.63
2022-10-29T12:04:28.189Z,18.74
2022-10-29T12:07:23.309Z,19.14
2022-10-29T12:10:15.929Z,19.41
2022-10-29T12:12:52.028Z,19.39
2022-10-29T12:15:26.168Z,19.35
2022-10-29T12:18:03.004Z,19.52
2022-10-29T12:20:38.197Z,20.19
2022-10-29T12:23:25.506Z,20.03
2022-10-29T12:26:06.561Z,19.15
2022-10-29T12:28:46.734Z,18.37
2022-10-29T12:31:25.595Z,17.47
2022-10-29T12:34:00.439Z,17.09
2022-10-29T12:36:40.683Z,16.94
2022-10-29T12:39:18.357Z,16.45
2022-10-29T12:41:49.589Z,16.33
2022-10-29T12:44:28.503Z,16.23
2022-10-29T12:47:03.917Z,16.14
2022-10-29T12:49:45.322Z,16.04
2022-10-29T12:52:20.124Z,15.75
2022-10-29T12:54:51.536Z,15.52
2022-10-29T12:57:30.149Z,15.42
2022-10-29T13:00:38.018Z,15.14
2022-10-29T13:03:09.239Z,14.97
2022-10-29T13:05:40.615Z,14.98
2022-10-29T13:08:35.962Z,15.10
2022-10-29T13:11:18.966Z,15.23
2022-10-29T13:14:00.208Z,15.84
2022-10-29T13:16:31.351Z,16.00
2022-10-29T13:19:35.923Z,15.78
2022-10-29T13:22:34.408Z,15.48
2022-10-29T13:25:51.402Z,15.35
2022-10-29T13:28:53.412Z,15.89
2022-10-29T13:31:50.281Z,15.62
2022-10-29T13:34:52.043Z,15.38
2022-10-29T13:37:51.925Z,15.01
2022-10-29T13:40:56.231Z,14.97
2022-10-29T13:43:25.607Z,15.16
2022-10-29T13:46:05.292Z,15.18
2022-10-29T13:48:37.214Z,15.30
2022-10-29T13:51:08.700Z,16.02
2022-10-29T13:53:43.438Z,16.04
2022-10-29T13:56:18.012Z,15.59
2022-10-29T13:58:49.961Z,15.19
2022-10-29T14:01:20.311Z,14.80
2022-10-29T14:03:59.719Z,14.50
2022-10-29T14:06:32.700Z,14.26
2022-10-29T14:09:13.006Z,14.15
2022-10-29T14:11:45.570Z,13.97
2022-10-29T14:14:26.281Z,13.82
2022-10-29T14:17:16.632Z,13.79
2022-10-29T14:19:47.013Z,13.74
2022-10-29T14:22:30.639Z,13.67
2022-10-29T14:25:00.828Z,13.54
2022-10-29T14:27:28.808Z,13.51
2022-10-29T14:30:15.165Z,13.49
2022-10-29T14:32:45.324Z,13.41
2022-10-29T14:35:16.941Z,13.33
2022-10-29T14:37:46.425Z,13.30
2022-10-29T14:40:22.644Z,13.23
2022-10-29T14:42:55.318Z,13.16
2022-10-29T14:45:28.877Z,13.07
2022-10-29T14:47:58.806Z,13.03
2022-10-29T14:50:28.311Z,12.92
2022-10-29T14:53:00.364Z,12.85
2022-10-29T14:55:34.131Z,12.85
2022-10-29T14:58:05.258Z,12.84
2022-10-29T15:00:37.169Z,12.77
2022-10-29T15:03:07.113Z,12.71
2022-10-29T15:05:36.609Z,12.71
2022-10-29T15:08:15.261Z,12.62
2022-10-29T15:10:50.701Z,12.60
2022-10-29T15:13:25.166Z,12.53
2022-10-29T15:15:56.339Z,12.47
2022-10-29T15:18:25.558Z,12.33
2022-10-29T15:20:55.103Z,12.33
2022-10-29T15:23:31.036Z,12.30
2022-10-29T15:26:06.183Z,12.27
2022-10-29T15:28:40.211Z,12.08
2022-10-29T15:31:08.825Z,12.16
2022-10-29T15:33:38.537Z,12.17
2022-10-29T15:36:09.551Z,12.15
2022-10-29T15:39:13.306Z,12.17
2022-10-29T15:41:49.034Z,12.13
2022-10-29T15:44:38.503Z,12.01
2022-10-29T15:47:23.164Z,12.00
2022-10-29T15:49:51.138Z,11.95
2022-10-29T15:52:21.460Z,11.91
2022-10-29T15:54:49.867Z,11.92
2022-10-29T15:57:19.048Z,11.86
2022-10-29T15:59:46.836Z,11.81
2022-10-29T16:02:17.667Z,11.77
2022-10-29T16:04:46.072Z,11.67
2022-10-29T16:07:14.962Z,11.69
2022-10-29T16:09:47.194Z,11.65
2022-10-29T16:12:15.482Z,11.71
2022-10-29T16:14:45.122Z,11.74
2022-10-29T16:17:17.888Z,11.66
2022-10-29T16:19:45.960Z,11.48
2022-10-29T16:22:15.998Z,11.67
2022-10-29T16:24:43.945Z,11.65
2022-10-29T16:27:16.399Z,11.65
2022-10-29T16:29:47.106Z,11.63
2022-10-29T16:32:16.831Z,11.68
2022-10-29T16:34:44.644Z,11.72
2022-10-29T16:37:15.590Z,11.72
2022-10-29T16:39:43.877Z,11.70
2022-10-29T16:42:31.589Z,11.74
2022-10-29T16:45:01.123Z,11.67
2022-10-29T16:47:28.927Z,11.66
2022-10-29T16:49:57.074Z,11.68
2022-10-29T16:52:28.861Z,11.66
2022-10-29T16:54:57.829Z,11.67
2022-10-29T16:57:26.078Z,11.60
2022-10-29T16:59:54.002Z,11.46
2022-10-29T17:02:23.306Z,11.43
2022-10-29T17:04:51.239Z,11.45
2022-10-29T17:07:19.007Z,11.48
2022-10-29T17:09:46.903Z,11.51
2022-10-29T17:12:15.143Z,11.52
2022-10-29T17:14:43.095Z,11.49
2022-10-29T17:17:11.165Z,11.43
2022-10-29T17:19:40.377Z,11.42
2022-10-29T17:22:10.695Z,11.43
2022-10-29T17:24:38.668Z,11.49
2022-10-29T17:27:06.845Z,11.53
2022-10-29T17:29:36.477Z,11.51
2022-10-29T17:32:05.736Z,11.45
2022-10-29T17:34:34.423Z,11.44
2022-10-29T17:37:04.014Z,11.54
2022-10-29T17:39:32.233Z,11.58
2022-10-29T17:42:00.359Z,11.55
2022-10-29T17:44:28.246Z,11.55
2022-10-29T17:46:56.361Z,11.53
2022-10-29T17:49:25.800Z,11.54
2022-10-29T17:51:53.671Z,11.55
2022-10-29T17:54:22.935Z,11.56
2022-10-29T17:56:51.737Z,11.48
2022-10-29T17:59:19.483Z,11.44
2022-10-29T18:01:47.588Z,11.38
2022-10-29T18:04:15.678Z,11.42
2022-10-29T18:06:43.574Z,11.44
2022-10-29T18:09:11.463Z,11.55
2022-10-29T18:11:40.768Z,11.55
2022-10-29T18:14:08.925Z,11.53
2022-10-29T18:16:36.738Z,11.60
2022-10-29T18:19:04.707Z,11.63
2022-10-29T18:21:32.941Z,11.65
2022-10-29T18:24:01.061Z,11.63
2022-10-29T18:26:31.142Z,11.53
2022-10-29T18:29:02.039Z,11.51
2022-10-29T18:31:32.137Z,11.43
2022-10-29T18:34:00.986Z,11.36
2022-10-29T18:36:29.374Z,11.39
2022-10-29T18:39:00.829Z,11.30
2022-10-29T18:41:29.162Z,11.35
2022-10-29T18:43:57.149Z,11.28
2022-10-29T18:46:26.755Z,11.20
2022-10-29T18:48:54.971Z,11.12
2022-10-29T18:51:25.279Z,11.06
2022-10-29T18:53:57.790Z,10.97
2022-10-29T18:56:26.653Z,10.96
2022-10-29T18:58:55.652Z,10.84
2022-10-29T19:01:26.377Z,10.69
2022-10-29T19:03:57.769Z,10.65
2022-10-29T19:06:27.482Z,10.64
2022-10-29T19:08:55.507Z,10.62
2022-10-29T19:11:25.980Z,10.54
2022-10-29T19:13:54.885Z,10.48
2022-10-29T19:16:23.502Z,10.33
2022-10-29T19:18:57.290Z,10.26
2022-10-29T19:21:26.432Z,10.10
2022-10-29T19:23:56.073Z,10.06
2022-10-29T19:26:25.633Z,9.96
2022-10-29T19:28:53.543Z,9.94
2022-10-29T19:31:23.616Z,9.96
2022-10-29T19:33:53.488Z,9.98
2022-10-29T19:36:23.929Z,9.92
2022-10-29T19:38:51.878Z,9.89
2022-10-29T19:41:20.533Z,9.71
2022-10-29T19:43:48.456Z,9.73
2022-10-29T19:46:18.211Z,9.60
2022-10-29T19:48:50.362Z,9.48
2022-10-29T19:51:18.908Z,9.49
2022-10-29T19:53:48.343Z,9.41
2022-10-29T19:56:17.221Z,9.38
2022-10-29T19:58:45.850Z,9.17
2022-10-29T20:01:17.046Z,9.04
2022-10-29T20:03:46.596Z,9.04
2022-10-29T20:06:15.902Z,8.85
2022-10-29T20:08:43.785Z,8.84
2022-10-29T20:11:13.040Z,8.81
2022-10-29T20:13:40.940Z,8.66
2022-10-29T20:16:14.246Z,8.41
2022-10-29T20:18:42.084Z,8.31
2022-10-29T20:21:10.117Z,8.21
2022-10-29T20:23:38.167Z,8.14
2022-10-29T20:26:06.382Z,7.95
2022-10-29T20:28:36.028Z,7.86
2022-10-29T20:31:30.736Z,7.77
2022-10-29T20:34:01.049Z,7.69
2022-10-29T20:36:31.103Z,7.88
2022-10-29T20:38:59.476Z,7.87
2022-10-29T20:41:27.778Z,7.88
2022-10-29T20:43:58.488Z,7.90
2022-10-29T20:46:26.819Z,7.84
2022-10-29T20:48:54.650Z,7.76
2022-10-29T20:51:23.295Z,7.61
2022-10-29T20:53:51.651Z,7.54
2022-10-29T20:56:19.628Z,7.34
2022-10-29T20:58:48.565Z,7.11
2022-10-29T21:01:20.574Z,6.94
2022-10-29T21:03:50.454Z,6.74
2022-10-29T21:06:19.214Z,6.55
2022-10-29T21:08:47.917Z,6.45
2022-10-29T21:11:17.802Z,6.36
2022-10-29T21:13:46.112Z,6.24
2022-10-29T21:16:18.449Z,6.08
2022-10-29T21:18:48.393Z,5.92
2022-10-29T21:21:19.374Z,5.70
2022-10-29T21:23:47.456Z,5.55
2022-10-29T21:26:17.037Z,5.42
2022-10-29T21:28:45.108Z,5.39
2022-10-29T21:31:14.056Z,5.44
2022-10-29T21:33:43.481Z,5.41
2022-10-29T21:36:14.380Z,5.49
2022-10-29T21:38:43.528Z,5.47
2022-10-29T21:41:11.623Z,5.43
2022-10-29T21:43:39.763Z,5.31
2022-10-29T21:46:08.135Z,5.11
2022-10-29T21:48:36.650Z,4.88
2022-10-29T21:51:09.025Z,4.70
2022-10-29T21:53:37.084Z,4.50
2022-10-29T21:56:07.377Z,4.35
2022-10-29T21:58:35.563Z,4.18
2022-10-29T22:01:05.230Z,4.04
2022-10-29T22:03:33.768Z,3.88
2022-10-29T22:06:08.112Z,3.72
2022-10-29T22:08:36.756Z,3.76
2022-10-29T22:11:05.036Z,3.82
2022-10-29T22:16:19.429Z,3.66
2022-10-29T22:18:47.427Z,3.59
2022-10-29T22:21:20.015Z,3.47
2022-10-29T22:23:49.517Z,3.43
2022-10-29T22:26:19.331Z,3.31
2022-10-29T22:28:48.093Z,3.19
2022-10-29T22:31:17.274Z,3.02
2022-10-29T22:33:46.275Z,2.93
2022-10-29T22:36:17.037Z,3.02
2022-10-29T22:38:45.709Z,3.14
2022-10-29T22:41:15.135Z,3.10
2022-10-29T22:43:43.396Z,3.06
2022-10-29T22:46:13.546Z,3.00
2022-10-29T22:48:43.771Z,2.93
2022-10-29T22:51:14.528Z,2.91
2022-10-29T22:53:44.554Z,2.99
2022-10-29T22:56:14.299Z,3.21
2022-10-29T22:58:42.277Z,3.40
2022-10-29T23:01:12.037Z,3.39
2022-10-29T23:03:41.590Z,3.35
2022-10-29T23:06:12.032Z,3.23
2022-10-29T23:08:40.076Z,3.08
2022-10-29T23:11:16.694Z,3.15
2022-10-29T23:13:45.555Z,3.15
2022-10-29T23:16:13.718Z,3.10
2022-10-29T23:18:41.981Z,3.08
2022-10-29T23:21:10.745Z,3.07
2022-10-29T23:23:38.607Z,3.10
2022-10-29T23:26:06.478Z,3.12
2022-10-29T23:28:38.571Z,3.12
2022-10-29T23:31:12.945Z,3.09
2022-10-29T23:33:44.489Z,3.06
2022-10-29T23:36:13.900Z,3.06
2022-10-29T23:38:41.994Z,3.15
2022-10-29T23:41:09.921Z,3.21
2022-10-29T23:43:39.503Z,3.23
2022-10-29T23:46:07.739Z,3.18
2022-10-29T23:48:35.859Z,3.10
2022-10-29T23:51:03.980Z,3.03
2022-10-29T23:53:33.887Z,2.91
2022-10-29T23:56:01.793Z,2.84
2022-10-29T23:58:29.947Z,2.98
